createdAt,value
2022-08-24T00:00:39.623Z,20.03
2022-08-24T00:03:11.772Z,20.03
2022-08-24T00:05:39.367Z,20.05
2022-08-24T00:08:06.891Z,20.09
2022-08-24T00:10:35.844Z,20.12
2022-08-24T00:13:03.374Z,20.08
2022-08-24T00:15:30.968Z,19.98
2022-08-24T00:17:58.612Z,19.94
2022-08-24T00:20:26.680Z,19.95
2022-08-24T00:22:54.371Z,19.91
2022-08-24T00:25:22.099Z,19.86
2022-08-24T00:27:51.114Z,19.83
2022-08-24T00:30:20.530Z,19.75
2022-08-24T00:32:49.336Z,19.67
2022-08-24T00:35:19.858Z,19.65
2022-08-24T00:37:48.703Z,19.62
2022-08-24T00:40:21.993Z,19.61
2022-08-24T00:42:51.644Z,19.61
2022-08-24T00:45:20.644Z,19.63
2022-08-24T00:47:55.134Z,19.62
2022-08-24T00:50:26.071Z,19.54
2022-08-24T00:52:58.312Z,19.46
2022-08-24T00:55:31.789Z,19.34
2022-08-24T00:58:04.799Z,19.27
2022-08-24T01:00:37.697Z,19.28
2022-08-24T01:03:06.902Z,19.30
2022-08-24T01:05:36.352Z,19.26
2022-08-24T01:08:06.849Z,19.30
2022-08-24T01:10:39.112Z,19.26
2022-08-24T01:13:09.871Z,19.17
2022-08-24T01:15:39.550Z,19.11
2022-08-24T01:18:27.112Z,19.07
2022-08-24T01:21:07.494Z,19.04
2022-08-24T01:23:40.453Z,19.02
2022-08-24T01:26:09.998Z,19.00
2022-08-24T01:28:41.155Z,18.97
2022-08-24T01:31:09.218Z,18.95
2022-08-24T01:33:36.822Z,18.95
2022-08-24T01:36:10.859Z,18.99
2022-08-24T01:38:39.716Z,18.98
2022-08-24T01:41:07.282Z,18.94
2022-08-24T01:43:37.445Z,18.92
2022-08-24T01:46:05.368Z,18.94
2022-08-24T01:48:32.970Z,18.95
2022-08-24T01:51:00.659Z,18.93
2022-08-24T01:53:28.543Z,18.89
2022-08-24T01:55:57.391Z,18.83
2022-08-24T01:58:25.035Z,18.77
2022-08-24T02:00:52.630Z,18.73
2022-08-24T02:03:20.538Z,18.69
2022-08-24T02:05:55.114Z,18.67
2022-08-24T02:08:22.606Z,18.63
2022-08-24T02:10:56.548Z,18.57
2022-08-24T02:13:28.691Z,18.53
2022-08-24T02:15:56.336Z,18.48
2022-08-24T02:18:23.894Z,18.47
2022-08-24T02:20:51.563Z,18.47
2022-08-24T02:23:20.336Z,18.43
2022-08-24T02:25:48.319Z,18.41
2022-08-24T02:28:15.858Z,18.39
2022-08-24T02:30:44.822Z,18.38
2022-08-24T02:33:12.929Z,18.39
2022-08-24T02:35:41.108Z,18.41
2022-08-24T02:38:09.072Z,18.51
2022-08-24T02:40:37.396Z,18.57
2022-08-24T02:43:05.910Z,18.54
2022-08-24T02:45:33.659Z,18.45
2022-08-24T02:48:02.495Z,18.37
2022-08-24T02:50:29.997Z,18.33
2022-08-24T02:52:57.590Z,18.28
2022-08-24T02:55:25.508Z,18.22
2022-08-24T02:57:53.074Z,18.15
2022-08-24T03:00:22.316Z,18.06
2022-08-24T03:02:50.084Z,18.02
2022-08-24T03:05:18.996Z,17.98
2022-08-24T03:07:46.607Z,17.91
2022-08-24T03:10:14.953Z,17.83
2022-08-24T03:12:42.466Z,17.76
2022-08-24T03:15:12.032Z,17.70
2022-08-24T03:17:41.038Z,17.70
2022-08-24T03:20:16.751Z,17.67
2022-08-24T03:22:46.250Z,17.60
2022-08-24T03:25:15.038Z,17.55
2022-08-24T03:27:43.432Z,17.49
2022-08-24T03:30:13.944Z,17.44
2022-08-24T03:32:42.152Z,17.39
2022-08-24T03:35:11.284Z,17.36
2022-08-24T03:37:39.758Z,17.35
2022-08-24T03:40:23.167Z,17.32
2022-08-24T03:42:52.880Z,17.27
2022-08-24T03:45:21.509Z,17.25
2022-08-24T03:47:49.193Z,17.22
2022-08-24T03:50:16.779Z,17.18
2022-08-24T03:52:44.310Z,17.22
2022-08-24T03:55:13.761Z,17.25
2022-08-24T03:57:41.427Z,17.22
2022-08-24T04:00:12.230Z,17.21
2022-08-24T04:02:39.770Z,17.15
2022-08-24T04:05:08.209Z,17.09
2022-08-24T04:07:35.702Z,17.15
2022-08-24T04:10:03.324Z,17.22
2022-08-24T04:12:32.289Z,17.22
2022-08-24T04:14:59.791Z,17.12
2022-08-24T04:17:27.455Z,17.03
2022-08-24T04:20:01.036Z,16.95
2022-08-24T04:22:30.940Z,16.85
2022-08-24T04:24:58.908Z,16.79
2022-08-24T04:27:26.582Z,16.75
2022-08-24T04:29:55.465Z,16.70
2022-08-24T04:32:23.047Z,16.67
2022-08-24T04:34:50.645Z,16.66
2022-08-24T04:37:18.403Z,16.65
2022-08-24T04:39:54.088Z,16.67
2022-08-24T04:42:21.706Z,16.67
2022-08-24T04:44:50.387Z,16.65
2022-08-24T04:47:19.288Z,16.62
2022-08-24T04:49:46.982Z,16.60
2022-08-24T04:52:14.883Z,16.62
2022-08-24T04:54:42.481Z,16.65
2022-08-24T04:57:11.702Z,16.66
2022-08-24T04:59:43.859Z,16.69
2022-08-24T05:02:11.635Z,16.72
2022-08-24T05:04:40.584Z,16.73
2022-08-24T05:07:08.307Z,16.74
2022-08-24T05:09:35.838Z,16.76
2022-08-24T05:12:03.850Z,16.78
2022-08-24T05:14:31.745Z,16.85
2022-08-24T05:16:59.245Z,16.95
2022-08-24T05:19:26.796Z,17.04
2022-08-24T05:21:56.094Z,17.10
2022-08-24T05:24:23.595Z,17.07
2022-08-24T05:26:53.134Z,17.04
2022-08-24T05:29:21.472Z,17.06
2022-08-24T05:31:49.085Z,17.09
2022-08-24T05:34:16.648Z,17.09
2022-08-24T05:36:44.617Z,17.10
2022-08-24T05:39:15.254Z,17.12
2022-08-24T05:41:44.711Z,17.14
2022-08-24T05:44:13.559Z,17.18
2022-08-24T05:46:41.576Z,17.24
2022-08-24T05:49:09.205Z,17.34
2022-08-24T05:51:37.079Z,17.43
2022-08-24T05:54:05.115Z,17.51
2022-08-24T05:56:34.105Z,17.58
2022-08-24T05:59:02.174Z,17.65
2022-08-24T06:01:30.142Z,17.73
2022-08-24T06:03:58.076Z,17.81
2022-08-24T06:06:26.591Z,17.83
2022-08-24T06:08:56.542Z,17.85
2022-08-24T06:11:30.313Z,17.87
2022-08-24T06:14:02.848Z,17.92
2022-08-24T06:16:36.396Z,18.03
2022-08-24T06:19:04.911Z,18.10
2022-08-24T06:21:32.781Z,18.20
2022-08-24T06:24:00.677Z,18.28
2022-08-24T06:26:50.198Z,18.38
2022-08-24T06:29:20.166Z,18.50
2022-08-24T06:31:54.284Z,18.62
2022-08-24T06:34:23.687Z,18.73
2022-08-24T06:36:51.563Z,18.84
2022-08-24T06:39:19.772Z,18.94
2022-08-24T06:41:47.314Z,19.07
2022-08-24T06:44:14.838Z,19.18
2022-08-24T06:46:43.759Z,19.31
2022-08-24T06:49:11.776Z,19.42
2022-08-24T06:51:39.335Z,19.53
2022-08-24T06:54:06.991Z,19.64
2022-08-24T06:56:36.467Z,19.75
2022-08-24T06:59:04.575Z,19.88
2022-08-24T07:01:32.489Z,19.99
2022-08-24T07:04:01.649Z,20.08
2022-08-24T07:06:29.579Z,20.16
2022-08-24T07:08:57.365Z,20.25
2022-08-24T07:11:25.496Z,20.34
2022-08-24T07:13:53.122Z,20.49
2022-08-24T07:16:22.239Z,20.61
2022-08-24T07:18:50.830Z,20.70
2022-08-24T07:21:20.259Z,20.81
2022-08-24T07:23:48.499Z,20.92
2022-08-24T07:26:21.365Z,21.06
2022-08-24T07:28:50.304Z,21.22
2022-08-24T07:31:17.967Z,21.37
2022-08-24T07:33:45.830Z,21.53
2022-08-24T07:36:22.232Z,21.67
2022-08-24T07:38:53.144Z,21.85
2022-08-24T07:41:47.188Z,21.99
2022-08-24T07:44:09.747Z,22.17
2022-08-24T07:46:37.757Z,22.31
2022-08-24T07:49:12.520Z,22.46
2022-08-24T07:51:48.492Z,22.60
2022-08-24T07:54:17.414Z,22.78
2022-08-24T07:56:44.952Z,22.94
2022-08-24T07:59:13.632Z,23.10
2022-08-24T08:01:41.708Z,23.23
2022-08-24T08:16:25.293Z,24.16
2022-08-24T09:13:11.747Z,27.56
2022-08-24T09:15:41.654Z,27.64
2022-08-24T09:18:34.077Z,27.74
2022-08-24T09:27:59.555Z,28.05
2022-08-24T09:33:28.448Z,28.17
2022-08-24T09:36:08.726Z,28.24
2022-08-24T09:38:57.249Z,28.32
2022-08-24T09:41:53.027Z,28.39
2022-08-24T09:44:55.530Z,28.44
2022-08-24T09:48:02.349Z,28.53
2022-08-24T10:00:55.105Z,28.80
2022-08-24T10:24:17.405Z,28.90
2022-08-24T10:30:23.708Z,29.02
2022-08-24T10:33:12.208Z,29.08
2022-08-24T10:35:56.226Z,29.10
2022-08-24T10:38:59.436Z,29.10
2022-08-24T10:41:57.381Z,29.11
2022-08-24T10:44:43.437Z,29.15
2022-08-24T10:47:19.381Z,29.22
2022-08-24T10:50:20.852Z,29.24
2022-08-24T10:53:10.070Z,29.26
2022-08-24T10:55:38.290Z,29.24
2022-08-24T10:58:28.684Z,29.23
2022-08-24T11:00:56.864Z,29.26
2022-08-24T11:03:28.383Z,29.26
2022-08-24T11:05:59.950Z,29.31
2022-08-24T11:08:29.833Z,29.31
2022-08-24T11:11:12.710Z,29.23
2022-08-24T11:13:53.425Z,29.18
2022-08-24T11:16:27.300Z,29.16
2022-08-24T11:18:57.396Z,29.08
2022-08-24T11:21:48.993Z,29.06
2022-08-24T11:24:30.486Z,29.08
2022-08-24T11:27:03.824Z,29.16
2022-08-24T11:29:59.376Z,29.24
2022-08-24T11:32:34.563Z,29.22
2022-08-24T11:35:04.413Z,29.24
2022-08-24T11:37:34.733Z,29.25
2022-08-24T11:40:04.744Z,29.27
2022-08-24T11:42:43.867Z,29.36
2022-08-24T11:45:17.217Z,29.48
2022-08-24T11:48:03.324Z,29.58
2022-08-24T11:50:40.434Z,29.67
2022-08-24T11:53:21.869Z,29.70
2022-08-24T11:56:01.733Z,29.64
2022-08-24T11:58:41.799Z,29.50
2022-08-24T12:01:18.736Z,29.48
2022-08-24T12:04:01.187Z,29.48
2022-08-24T12:06:44.450Z,29.53
2022-08-24T12:09:24.420Z,29.51
2022-08-24T12:12:00.247Z,29.44
2022-08-24T12:14:34.936Z,29.35
2022-08-24T12:17:13.927Z,29.24
2022-08-24T12:19:47.408Z,29.15
2022-08-24T12:22:16.789Z,29.15
2022-08-24T12:24:47.957Z,29.09
2022-08-24T12:27:23.471Z,28.99
2022-08-24T12:29:57.955Z,28.87
2022-08-24T12:32:34.651Z,28.76
2022-08-24T12:35:07.232Z,28.69
2022-08-24T12:37:39.191Z,28.66
2022-08-24T12:40:11.269Z,28.67
2022-08-24T12:42:47.554Z,28.64
2022-08-24T12:45:19.701Z,28.66
2022-08-24T12:47:55.668Z,28.69
2022-08-24T12:50:41.004Z,28.68
2022-08-24T12:53:26.460Z,28.73
2022-08-24T12:56:44.237Z,28.75
2022-08-24T12:59:19.413Z,28.75
2022-08-24T13:02:02.164Z,28.73
2022-08-24T13:04:41.943Z,28.68
2022-08-24T13:07:29.604Z,28.62
2022-08-24T13:10:11.958Z,28.51
2022-08-24T13:12:56.960Z,28.46
2022-08-24T13:15:58.911Z,28.39
2022-08-24T13:19:10.748Z,28.41
2022-08-24T13:21:44.839Z,28.45
2022-08-24T13:24:50.277Z,28.57
2022-08-24T13:27:50.554Z,28.69
2022-08-24T13:30:27.096Z,28.74
2022-08-24T13:33:03.248Z,28.71
2022-08-24T13:35:36.632Z,28.69
2022-08-24T13:38:34.268Z,28.66
2022-08-24T13:41:06.684Z,28.65
2022-08-24T13:43:39.313Z,28.66
2022-08-24T13:46:20.947Z,28.67
2022-08-24T13:48:56.298Z,28.64
2022-08-24T13:51:39.692Z,28.62
2022-08-24T13:54:23.196Z,28.58
2022-08-24T13:57:06.016Z,28.51
2022-08-24T13:59:54.399Z,28.45
2022-08-24T14:02:32.831Z,28.37
2022-08-24T14:05:12.886Z,28.27
2022-08-24T14:07:53.173Z,28.19
2022-08-24T14:10:39.134Z,28.13
2022-08-24T14:13:27.715Z,28.03
2022-08-24T14:16:14.487Z,27.94
2022-08-24T14:18:58.989Z,27.89
2022-08-24T14:21:50.127Z,27.82
2022-08-24T14:24:43.839Z,27.72
2022-08-24T14:34:18.630Z,27.33
2022-08-24T14:36:56.908Z,27.25
2022-08-24T14:39:37.226Z,27.22
2022-08-24T14:42:16.880Z,27.20
2022-08-24T14:58:56.960Z,27.13
2022-08-24T15:01:40.555Z,27.09
2022-08-24T15:04:30.778Z,27.08
2022-08-24T15:07:27.877Z,27.12
2022-08-24T15:09:57.852Z,27.15
2022-08-24T15:12:39.159Z,27.20
2022-08-24T15:15:15.331Z,27.25
2022-08-24T15:17:54.384Z,27.29
2022-08-24T15:20:34.042Z,27.32
2022-08-24T15:23:08.796Z,27.32
2022-08-24T15:25:43.774Z,27.32
2022-08-24T15:28:15.312Z,27.26
2022-08-24T15:30:55.847Z,27.19
2022-08-24T15:33:23.978Z,27.10
2022-08-24T15:36:04.312Z,27.01
2022-08-24T15:38:35.396Z,26.94
2022-08-24T15:41:08.457Z,26.88
2022-08-24T15:43:42.320Z,26.81
2022-08-24T15:46:10.671Z,26.76
2022-08-24T15:48:39.088Z,26.74
2022-08-24T15:51:06.939Z,26.71
2022-08-24T15:53:37.905Z,26.67
2022-08-24T15:56:35.744Z,26.63
2022-08-24T15:59:10.982Z,26.59
2022-08-24T16:01:56.789Z,26.56
2022-08-24T16:04:44.945Z,26.55
2022-08-24T16:07:25.628Z,26.52
2022-08-24T16:10:04.739Z,26.52
2022-08-24T16:12:32.806Z,26.51
2022-08-24T16:15:15.719Z,26.51
2022-08-24T16:17:51.336Z,26.51
2022-08-24T16:20:32.751Z,26.51
2022-08-24T16:23:03.101Z,26.54
2022-08-24T16:25:32.741Z,26.55
2022-08-24T16:28:07.608Z,26.57
2022-08-24T16:30:51.999Z,26.58
2022-08-24T16:33:53.469Z,26.59
2022-08-24T16:36:20.999Z,26.60
2022-08-24T16:38:50.858Z,26.60
2022-08-24T16:41:21.157Z,26.61
2022-08-24T16:43:49.356Z,26.61
2022-08-24T16:46:23.042Z,26.62
2022-08-24T16:48:52.040Z,26.62
2022-08-24T16:51:19.597Z,26.62
2022-08-24T16:53:47.084Z,26.62
2022-08-24T16:56:16.814Z,26.61
2022-08-24T16:58:47.198Z,26.61
2022-08-24T17:01:15.582Z,26.60
2022-08-24T17:03:44.719Z,26.60
2022-08-24T17:06:13.164Z,26.59
2022-08-24T17:08:40.997Z,26.57
2022-08-24T17:11:08.626Z,26.55
2022-08-24T17:13:51.580Z,26.53
2022-08-24T17:16:20.245Z,26.50
2022-08-24T17:18:49.608Z,26.47
2022-08-24T17:21:17.322Z,26.45
2022-08-24T17:23:45.007Z,26.43
2022-08-24T17:26:20.677Z,26.43
2022-08-24T17:28:51.583Z,26.42
2022-08-24T17:31:19.191Z,26.40
2022-08-24T17:33:46.787Z,26.38
2022-08-24T17:36:17.683Z,26.36
2022-08-24T17:38:52.921Z,26.33
2022-08-24T17:41:23.734Z,26.28
2022-08-24T17:43:51.435Z,26.27
2022-08-24T17:46:20.479Z,26.25
2022-08-24T17:48:48.563Z,26.22
2022-08-24T17:51:17.597Z,26.20
2022-08-24T17:53:45.448Z,26.18
2022-08-24T17:56:14.087Z,26.15
2022-08-24T17:58:56.403Z,26.12
2022-08-24T18:01:24.132Z,26.06
2022-08-24T18:03:51.768Z,26.02
2022-08-24T18:06:23.726Z,25.97
2022-08-24T18:08:52.688Z,25.93
2022-08-24T18:11:25.266Z,25.88
2022-08-24T18:13:54.379Z,25.85
2022-08-24T18:16:24.243Z,25.81
2022-08-24T18:18:53.567Z,25.76
2022-08-24T18:21:22.882Z,25.71
2022-08-24T18:23:51.152Z,25.66
2022-08-24T18:26:25.149Z,25.62
2022-08-24T18:28:57.005Z,25.55
2022-08-24T18:31:27.567Z,25.51
2022-08-24T18:33:55.371Z,25.44
2022-08-24T18:36:24.215Z,25.40
2022-08-24T18:38:51.737Z,25.35
2022-08-24T18:41:19.322Z,25.29
2022-08-24T18:43:47.376Z,25.25
2022-08-24T18:46:15.084Z,25.20
2022-08-24T18:48:42.689Z,25.16
2022-08-24T18:51:11.363Z,25.11
2022-08-24T18:53:40.325Z,25.05
2022-08-24T18:56:12.511Z,25.01
2022-08-24T18:58:40.635Z,24.96
2022-08-24T19:01:08.536Z,24.90
2022-08-24T19:03:36.214Z,24.86
2022-08-24T19:06:03.748Z,24.85
2022-08-24T19:08:31.328Z,24.82
2022-08-24T19:11:00.384Z,24.79
2022-08-24T19:13:28.280Z,24.77
2022-08-24T19:15:55.825Z,24.74
2022-08-24T19:18:23.864Z,24.76
2022-08-24T19:20:53.718Z,24.76
2022-08-24T19:23:23.553Z,24.75
2022-08-24T19:25:51.949Z,24.70
2022-08-24T19:28:21.535Z,24.65
2022-08-24T19:30:49.656Z,24.60
2022-08-24T19:33:29.282Z,24.57
2022-08-24T19:35:56.841Z,24.52
2022-08-24T19:38:26.170Z,24.49
2022-08-24T19:40:54.597Z,24.45
2022-08-24T19:43:25.465Z,24.44
2022-08-24T19:46:06.337Z,24.43
2022-08-24T19:48:36.312Z,24.36
2022-08-24T19:51:05.399Z,24.31
2022-08-24T19:53:34.963Z,24.24
2022-08-24T19:56:03.628Z,24.20
2022-08-24T19:58:40.383Z,24.15
2022-08-24T20:01:12.182Z,24.11
2022-08-24T20:03:39.859Z,24.09
2022-08-24T20:06:07.730Z,24.03
2022-08-24T20:08:35.294Z,23.97
2022-08-24T20:11:03.029Z,23.95
2022-08-24T20:13:30.576Z,23.95
2022-08-24T20:15:59.944Z,23.92
2022-08-24T20:18:31.535Z,23.84
2022-08-24T20:20:59.761Z,23.80
2022-08-24T20:23:27.787Z,23.71
2022-08-24T20:25:56.409Z,23.64
2022-08-24T20:28:29.171Z,23.62
2022-08-24T20:30:58.629Z,23.60
2022-08-24T20:33:27.938Z,23.59
2022-08-24T20:35:56.563Z,23.57
2022-08-24T20:38:25.263Z,23.52
2022-08-24T20:40:56.855Z,23.45
2022-08-24T20:43:24.381Z,23.43
2022-08-24T20:45:52.891Z,23.39
2022-08-24T20:48:28.214Z,23.39
2022-08-24T20:50:55.966Z,23.38
2022-08-24T20:53:23.484Z,23.34
2022-08-24T20:55:51.250Z,23.28
2022-08-24T20:58:21.972Z,23.24
2022-08-24T21:00:49.768Z,23.20
2022-08-24T21:03:18.765Z,23.14
2022-08-24T21:05:52.259Z,23.10
2022-08-24T21:08:20.166Z,23.04
2022-08-24T21:10:48.404Z,23.02
2022-08-24T21:13:16.031Z,23.00
2022-08-24T21:15:43.698Z,22.99
2022-08-24T21:18:11.724Z,22.98
2022-08-24T21:20:42.644Z,22.97
2022-08-24T21:23:19.582Z,22.95
2022-08-24T21:25:47.622Z,22.89
2022-08-24T21:28:18.647Z,22.83
2022-08-24T21:30:46.204Z,22.81
2022-08-24T21:33:30.937Z,22.82
2022-08-24T21:35:59.316Z,22.83
2022-08-24T21:38:29.790Z,22.79
2022-08-24T21:40:58.018Z,22.73
2022-08-24T21:43:25.604Z,22.68
2022-08-24T21:45:54.531Z,22.67
2022-08-24T21:48:22.071Z,22.69
2022-08-24T21:50:49.596Z,22.67
2022-08-24T21:53:17.733Z,22.65
2022-08-24T21:55:46.884Z,22.62
2022-08-24T21:58:14.370Z,22.59
2022-08-24T22:00:41.900Z,22.54
2022-08-24T22:03:10.011Z,22.52
2022-08-24T22:05:37.892Z,22.52
2022-08-24T22:08:05.494Z,22.49
2022-08-24T22:10:33.072Z,22.43
2022-08-24T22:13:04.382Z,22.36
2022-08-24T22:15:32.747Z,22.32
2022-08-24T22:18:01.240Z,22.32
2022-08-24T22:20:28.901Z,22.29
2022-08-24T22:22:58.121Z,22.25
2022-08-24T22:25:25.975Z,22.20
2022-08-24T22:27:53.507Z,22.18
2022-08-24T22:30:22.648Z,22.15
2022-08-24T22:32:50.130Z,22.11
